sensor_id;sensor_type;location;lat;lon;timestamp;temperature;humidity
15900;DHT22;8048;50.644;6.184;2023-09-12T00:00:41;18.60;99.90
15900;DHT22;8048;50.644;6.184;2023-09-12T00:03:06;18.60;99.90
15900;DHT22;8048;50.644;6.184;2023-09-12T00:05:32;18.60;99.90
15900;DHT22;8048;50.644;6.184;2023-09-12T00:07:57;18.60;99.90
15900;DHT22;8048;50.644;6.184;2023-09-12T00:10:23;18.50;99.90
15900;DHT22;8048;50.644;6.184;2023-09-12T00:12:48;18.50;99.90
15900;DHT22;8048;50.644;6.184;2023-09-12T00:15:14;18.50;99.90
15900;DHT22;8048;50.644;6.184;2023-09-12T00:17:40;18.40;99.90
15900;DHT22;8048;50.644;6.184;2023-09-12T00:20:06;18.40;99.90
15900;DHT22;8048;50.644;6.184;2023-09-12T00:22:33;18.30;99.90
15900;DHT22;8048;50.644;6.184;2023-09-12T00:24:58;18.30;99.90
15900;DHT22;8048;50.644;6.184;2023-09-12T00:27:24;18.20;99.90
15900;DHT22;8048;50.644;6.184;2023-09-12T00:29:49;18.30;99.90
15900;DHT22;8048;50.644;6.184;2023-09-12T00:32:15;18.30;99.90
15900;DHT22;8048;50.644;6.184;2023-09-12T00:34:40;18.20;99.90
15900;DHT22;8048;50.644;6.184;2023-09-12T00:37:06;18.20;99.90
15900;DHT22;8048;50.644;6.184;2023-09-12T00:39:31;18.30;99.90
15900;DHT22;8048;50.644;6.184;2023-09-12T00:41:57;18.30;99.90
15900;DHT22;8048;50.644;6.184;2023-09-12T00:44:22;18.20;99.90
15900;DHT22;8048;50.644;6.184;2023-09-12T00:46:49;18.20;99.90
15900;DHT22;8048;50.644;6.184;2023-09-12T00:49:16;18.20;99.90
15900;DHT22;8048;50.644;6.184;2023-09-12T00:51:43;18.20;99.90
15900;DHT22;8048;50.644;6.184;2023-09-12T00:54:10;18.20;99.90
15900;DHT22;8048;50.644;6.184;2023-09-12T00:56:36;18.20;99.90
15900;DHT22;8048;50.644;6.184;2023-09-12T00:59:02;18.20;99.90
15900;DHT22;8048;50.644;6.184;2023-09-12T01:01:28;18.10;99.90
15900;DHT22;8048;50.644;6.184;2023-09-12T01:03:55;18.10;99.90
15900;DHT22;8048;50.644;6.184;2023-09-12T01:06:23;18.10;99.90
15900;DHT22;8048;50.644;6.184;2023-09-12T01:08:51;18.10;99.90
15900;DHT22;8048;50.644;6.184;2023-09-12T01:11:17;18.10;99.90
15900;DHT22;8048;50.644;6.184;2023-09-12T01:13:42;18.10;99.90
15900;DHT22;8048;50.644;6.184;2023-09-12T01:16:08;18.00;99.90
15900;DHT22;8048;50.644;6.184;2023-09-12T01:18:34;18.00;99.90
15900;DHT22;8048;50.644;6.184;2023-09-12T01:21:22;18.00;99.90
15900;DHT22;8048;50.644;6.184;2023-09-12T01:24:20;18.00;99.90
15900;DHT22;8048;50.644;6.184;2023-09-12T01:29:39;17.90;99.90
15900;DHT22;8048;50.644;6.184;2023-09-12T01:32:05;17.80;99.90
15900;DHT22;8048;50.644;6.184;2023-09-12T01:34:31;17.90;99.90
15900;DHT22;8048;50.644;6.184;2023-09-12T01:36:57;17.80;99.90
15900;DHT22;8048;50.644;6.184;2023-09-12T01:39:22;17.80;99.90
15900;DHT22;8048;50.644;6.184;2023-09-12T01:41:48;17.80;99.90
15900;DHT22;8048;50.644;6.184;2023-09-12T01:44:15;17.70;99.90
15900;DHT22;8048;50.644;6.184;2023-09-12T01:46:43;17.70;99.90
15900;DHT22;8048;50.644;6.184;2023-09-12T01:49:10;17.70;99.90
15900;DHT22;8048;50.644;6.184;2023-09-12T01:51:36;17.60;99.90
15900;DHT22;8048;50.644;6.184;2023-09-12T01:54:03;17.60;99.90
15900;DHT22;8048;50.644;6.184;2023-09-12T01:56:30;17.60;99.90
15900;DHT22;8048;50.644;6.184;2023-09-12T01:58:56;17.60;99.90
15900;DHT22;8048;50.644;6.184;2023-09-12T02:01:21;17.60;99.90
15900;DHT22;8048;50.644;6.184;2023-09-12T02:03:47;17.60;99.90
15900;DHT22;8048;50.644;6.184;2023-09-12T02:06:13;17.60;99.90
15900;DHT22;8048;50.644;6.184;2023-09-12T02:08:38;17.60;99.90
15900;DHT22;8048;50.644;6.184;2023-09-12T02:11:04;17.50;99.90
15900;DHT22;8048;50.644;6.184;2023-09-12T02:13:29;17.50;99.90
15900;DHT22;8048;50.644;6.184;2023-09-12T02:16:01;17.50;99.90
15900;DHT22;8048;50.644;6.184;2023-09-12T02:18:28;17.50;99.90
15900;DHT22;8048;50.644;6.184;2023-09-12T02:20:54;17.50;99.90
15900;DHT22;8048;50.644;6.184;2023-09-12T02:23:19;17.40;99.90
15900;DHT22;8048;50.644;6.184;2023-09-12T02:25:45;17.40;99.90
15900;DHT22;8048;50.644;6.184;2023-09-12T02:28:10;17.40;99.90
15900;DHT22;8048;50.644;6.184;2023-09-12T02:30:38;17.40;99.90
15900;DHT22;8048;50.644;6.184;2023-09-12T02:33:05;17.40;99.90
15900;DHT22;8048;50.644;6.184;2023-09-12T02:35:31;17.40;99.90
15900;DHT22;8048;50.644;6.184;2023-09-12T02:37:56;17.40;99.90
15900;DHT22;8048;50.644;6.184;2023-09-12T02:40:22;17.40;99.90
15900;DHT22;8048;50.644;6.184;2023-09-12T02:42:47;17.40;99.90
15900;DHT22;8048;50.644;6.184;2023-09-12T02:45:13;17.30;99.90
15900;DHT22;8048;50.644;6.184;2023-09-12T02:47:38;17.30;99.90
15900;DHT22;8048;50.644;6.184;2023-09-12T02:50:04;17.30;99.90
15900;DHT22;8048;50.644;6.184;2023-09-12T02:52:30;17.30;99.90
15900;DHT22;8048;50.644;6.184;2023-09-12T02:54:55;17.30;99.90
15900;DHT22;8048;50.644;6.184;2023-09-12T02:57:21;17.20;99.90
15900;DHT22;8048;50.644;6.184;2023-09-12T02:59:47;17.20;99.90
15900;DHT22;8048;50.644;6.184;2023-09-12T03:02:12;17.20;99.90
15900;DHT22;8048;50.644;6.184;2023-09-12T03:04:38;17.20;99.90
15900;DHT22;8048;50.644;6.184;2023-09-12T03:07:03;17.20;99.90
15900;DHT22;8048;50.644;6.184;2023-09-12T03:09:29;17.20;99.90
15900;DHT22;8048;50.644;6.184;2023-09-12T03:11:54;17.20;99.90
15900;DHT22;8048;50.644;6.184;2023-09-12T03:14:20;17.20;99.90
15900;DHT22;8048;50.644;6.184;2023-09-12T03:16:45;17.20;99.90
15900;DHT22;8048;50.644;6.184;2023-09-12T03:19:11;17.20;99.90
15900;DHT22;8048;50.644;6.184;2023-09-12T03:21:36;17.20;99.90
15900;DHT22;8048;50.644;6.184;2023-09-12T03:24:02;17.20;99.90
15900;DHT22;8048;50.644;6.184;2023-09-12T03:26:28;17.20;99.90
15900;DHT22;8048;50.644;6.184;2023-09-12T03:28:53;17.20;99.90
15900;DHT22;8048;50.644;6.184;2023-09-12T03:31:19;17.30;99.90
15900;DHT22;8048;50.644;6.184;2023-09-12T03:33:44;17.30;99.90
15900;DHT22;8048;50.644;6.184;2023-09-12T03:36:15;17.40;99.90
15900;DHT22;8048;50.644;6.184;2023-09-12T03:38:41;17.30;99.90
15900;DHT22;8048;50.644;6.184;2023-09-12T03:41:06;17.40;99.90
15900;DHT22;8048;50.644;6.184;2023-09-12T03:43:33;17.40;99.90
15900;DHT22;8048;50.644;6.184;2023-09-12T03:45:59;17.40;99.90
15900;DHT22;8048;50.644;6.184;2023-09-12T03:48:24;17.40;99.90
15900;DHT22;8048;50.644;6.184;2023-09-12T03:50:50;17.30;99.90
15900;DHT22;8048;50.644;6.184;2023-09-12T03:53:15;17.30;99.90
15900;DHT22;8048;50.644;6.184;2023-09-12T03:55:42;17.30;99.90
15900;DHT22;8048;50.644;6.184;2023-09-12T03:58:07;17.30;99.90
15900;DHT22;8048;50.644;6.184;2023-09-12T04:00:33;17.30;99.90
15900;DHT22;8048;50.644;6.184;2023-09-12T04:02:58;17.40;99.90
15900;DHT22;8048;50.644;6.184;2023-09-12T04:05:25;17.40;99.90
15900;DHT22;8048;50.644;6.184;2023-09-12T04:07:51;17.40;99.90
15900;DHT22;8048;50.644;6.184;2023-09-12T04:10:18;17.40;99.90
15900;DHT22;8048;50.644;6.184;2023-09-12T04:12:44;17.30;99.90
15900;DHT22;8048;50.644;6.184;2023-09-12T04:15:09;17.30;99.90
15900;DHT22;8048;50.644;6.184;2023-09-12T04:17:35;17.30;99.90
15900;DHT22;8048;50.644;6.184;2023-09-12T04:20:00;17.30;99.90
15900;DHT22;8048;50.644;6.184;2023-09-12T04:22:26;17.30;99.90
15900;DHT22;8048;50.644;6.184;2023-09-12T04:24:51;17.30;99.90
15900;DHT22;8048;50.644;6.184;2023-09-12T04:27:17;17.20;99.90
15900;DHT22;8048;50.644;6.184;2023-09-12T04:29:42;17.20;99.90
15900;DHT22;8048;50.644;6.184;2023-09-12T04:32:09;17.30;99.90
15900;DHT22;8048;50.644;6.184;2023-09-12T04:34:34;17.30;99.90
15900;DHT22;8048;50.644;6.184;2023-09-12T04:37:00;17.30;99.90
15900;DHT22;8048;50.644;6.184;2023-09-12T04:39:28;17.30;99.90
15900;DHT22;8048;50.644;6.184;2023-09-12T04:41:53;17.30;99.90
15900;DHT22;8048;50.644;6.184;2023-09-12T04:44:19;17.40;99.90
15900;DHT22;8048;50.644;6.184;2023-09-12T04:46:44;17.40;99.90
15900;DHT22;8048;50.644;6.184;2023-09-12T04:49:10;17.60;99.90
15900;DHT22;8048;50.644;6.184;2023-09-12T04:51:35;17.70;99.90
15900;DHT22;8048;50.644;6.184;2023-09-12T04:54:01;17.60;99.90
15900;DHT22;8048;50.644;6.184;2023-09-12T04:56:26;17.60;99.90
15900;DHT22;8048;50.644;6.184;2023-09-12T04:58:52;17.70;99.90
15900;DHT22;8048;50.644;6.184;2023-09-12T05:01:17;17.70;99.90
15900;DHT22;8048;50.644;6.184;2023-09-12T05:03:43;17.80;99.90
15900;DHT22;8048;50.644;6.184;2023-09-12T05:06:10;17.80;99.90
15900;DHT22;8048;50.644;6.184;2023-09-12T05:08:36;17.80;99.90
15900;DHT22;8048;50.644;6.184;2023-09-12T05:11:01;17.80;99.90
15900;DHT22;8048;50.644;6.184;2023-09-12T05:13:28;17.80;99.90
15900;DHT22;8048;50.644;6.184;2023-09-12T05:15:54;17.80;99.90
15900;DHT22;8048;50.644;6.184;2023-09-12T05:18:21;17.80;99.90
15900;DHT22;8048;50.644;6.184;2023-09-12T05:20:46;17.70;99.90
15900;DHT22;8048;50.644;6.184;2023-09-12T05:23:12;17.70;99.90
15900;DHT22;8048;50.644;6.184;2023-09-12T05:25:37;17.80;99.90
15900;DHT22;8048;50.644;6.184;2023-09-12T05:28:03;17.80;99.90
15900;DHT22;8048;50.644;6.184;2023-09-12T05:30:30;17.80;99.90
15900;DHT22;8048;50.644;6.184;2023-09-12T05:32:55;17.80;99.90
15900;DHT22;8048;50.644;6.184;2023-09-12T05:35:21;17.80;99.90
15900;DHT22;8048;50.644;6.184;2023-09-12T05:37:46;17.90;99.90
15900;DHT22;8048;50.644;6.184;2023-09-12T05:40:13;18.00;99.90
15900;DHT22;8048;50.644;6.184;2023-09-12T05:42:38;18.00;99.90
15900;DHT22;8048;50.644;6.184;2023-09-12T05:45:05;18.00;99.90
15900;DHT22;8048;50.644;6.184;2023-09-12T05:47:31;18.00;99.90
15900;DHT22;8048;50.644;6.184;2023-09-12T05:49:56;18.10;99.90
15900;DHT22;8048;50.644;6.184;2023-09-12T05:52:24;18.20;99.90
15900;DHT22;8048;50.644;6.184;2023-09-12T05:54:49;18.10;99.90
15900;DHT22;8048;50.644;6.184;2023-09-12T05:57:15;18.20;99.90
15900;DHT22;8048;50.644;6.184;2023-09-12T05:59:41;18.20;99.90
15900;DHT22;8048;50.644;6.184;2023-09-12T06:02:07;18.30;99.90
15900;DHT22;8048;50.644;6.184;2023-09-12T06:04:35;18.30;99.90
15900;DHT22;8048;50.644;6.184;2023-09-12T06:07:02;18.40;99.90
15900;DHT22;8048;50.644;6.184;2023-09-12T06:09:29;18.40;99.90
15900;DHT22;8048;50.644;6.184;2023-09-12T06:11:54;18.50;99.90
15900;DHT22;8048;50.644;6.184;2023-09-12T06:14:20;18.50;99.90
15900;DHT22;8048;50.644;6.184;2023-09-12T06:16:45;18.50;99.90
15900;DHT22;8048;50.644;6.184;2023-09-12T06:19:11;18.60;99.90
15900;DHT22;8048;50.644;6.184;2023-09-12T06:21:37;18.70;99.90
15900;DHT22;8048;50.644;6.184;2023-09-12T06:24:16;18.70;99.90
15900;DHT22;8048;50.644;6.184;2023-09-12T06:26:42;18.70;99.90
15900;DHT22;8048;50.644;6.184;2023-09-12T06:29:08;18.70;99.90
15900;DHT22;8048;50.644;6.184;2023-09-12T06:31:34;18.80;99.90
15900;DHT22;8048;50.644;6.184;2023-09-12T06:34:00;18.80;99.90
15900;DHT22;8048;50.644;6.184;2023-09-12T06:36:26;18.80;99.90
15900;DHT22;8048;50.644;6.184;2023-09-12T06:38:57;18.80;99.90
15900;DHT22;8048;50.644;6.184;2023-09-12T06:41:23;18.90;99.90
15900;DHT22;8048;50.644;6.184;2023-09-12T06:43:49;18.90;99.90
15900;DHT22;8048;50.644;6.184;2023-09-12T06:46:14;18.90;99.90
15900;DHT22;8048;50.644;6.184;2023-09-12T06:48:43;19.00;99.90
15900;DHT22;8048;50.644;6.184;2023-09-12T06:51:09;19.10;99.90
15900;DHT22;8048;50.644;6.184;2023-09-12T06:53:35;19.10;99.90
15900;DHT22;8048;50.644;6.184;2023-09-12T06:56:04;19.20;99.90
15900;DHT22;8048;50.644;6.184;2023-09-12T06:58:30;19.20;99.90
15900;DHT22;8048;50.644;6.184;2023-09-12T07:00:55;19.20;99.90
15900;DHT22;8048;50.644;6.184;2023-09-12T07:03:21;19.20;99.90
15900;DHT22;8048;50.644;6.184;2023-09-12T07:05:46;19.20;99.90
15900;DHT22;8048;50.644;6.184;2023-09-12T07:08:13;19.20;99.90
15900;DHT22;8048;50.644;6.184;2023-09-12T07:10:44;19.30;99.90
15900;DHT22;8048;50.644;6.184;2023-09-12T07:13:11;19.40;99.90
15900;DHT22;8048;50.644;6.184;2023-09-12T07:15:36;19.40;99.90
15900;DHT22;8048;50.644;6.184;2023-09-12T07:18:02;19.40;99.90
15900;DHT22;8048;50.644;6.184;2023-09-12T07:20:27;19.50;99.90
15900;DHT22;8048;50.644;6.184;2023-09-12T07:22:53;19.60;99.90
15900;DHT22;8048;50.644;6.184;2023-09-12T07:25:19;19.60;99.90
15900;DHT22;8048;50.644;6.184;2023-09-12T07:27:46;19.70;99.90
15900;DHT22;8048;50.644;6.184;2023-09-12T07:30:11;19.80;99.90
15900;DHT22;8048;50.644;6.184;2023-09-12T07:32:37;19.90;99.90
15900;DHT22;8048;50.644;6.184;2023-09-12T07:35:03;20.00;99.90
15900;DHT22;8048;50.644;6.184;2023-09-12T07:37:28;20.10;99.90
15900;DHT22;8048;50.644;6.184;2023-09-12T07:39:54;20.10;99.90
15900;DHT22;8048;50.644;6.184;2023-09-12T07:42:23;20.20;99.90
15900;DHT22;8048;50.644;6.184;2023-09-12T07:44:49;20.20;99.90
15900;DHT22;8048;50.644;6.184;2023-09-12T07:47:14;20.30;99.90
15900;DHT22;8048;50.644;6.184;2023-09-12T07:49:40;20.30;99.90
15900;DHT22;8048;50.644;6.184;2023-09-12T07:52:06;20.40;99.90
15900;DHT22;8048;50.644;6.184;2023-09-12T07:54:32;20.40;99.90
15900;DHT22;8048;50.644;6.184;2023-09-12T07:56:57;20.50;99.90
15900;DHT22;8048;50.644;6.184;2023-09-12T07:59:23;20.70;99.90
15900;DHT22;8048;50.644;6.184;2023-09-12T08:01:49;20.80;99.90
15900;DHT22;8048;50.644;6.184;2023-09-12T08:04:15;20.90;99.90
15900;DHT22;8048;50.644;6.184;2023-09-12T08:06:40;21.00;99.90
15900;DHT22;8048;50.644;6.184;2023-09-12T08:09:08;21.10;99.90
15900;DHT22;8048;50.644;6.184;2023-09-12T08:11:34;21.30;99.90
15900;DHT22;8048;50.644;6.184;2023-09-12T08:13:59;21.40;99.90
15900;DHT22;8048;50.644;6.184;2023-09-12T08:16:25;21.50;99.90
15900;DHT22;8048;50.644;6.184;2023-09-12T08:18:50;21.60;99.90
15900;DHT22;8048;50.644;6.184;2023-09-12T08:21:16;21.80;99.90
15900;DHT22;8048;50.644;6.184;2023-09-12T08:23:41;21.80;99.90
15900;DHT22;8048;50.644;6.184;2023-09-12T08:26:07;21.90;99.90
15900;DHT22;8048;50.644;6.184;2023-09-12T08:28:34;22.10;99.90
15900;DHT22;8048;50.644;6.184;2023-09-12T08:30:59;22.30;99.90
15900;DHT22;8048;50.644;6.184;2023-09-12T08:33:25;22.50;99.90
15900;DHT22;8048;50.644;6.184;2023-09-12T08:35:50;22.70;99.90
15900;DHT22;8048;50.644;6.184;2023-09-12T08:38:16;22.70;99.90
15900;DHT22;8048;50.644;6.184;2023-09-12T08:40:50;22.70;99.90
15900;DHT22;8048;50.644;6.184;2023-09-12T08:43:17;22.60;99.90
15900;DHT22;8048;50.644;6.184;2023-09-12T08:45:42;22.70;99.90
15900;DHT22;8048;50.644;6.184;2023-09-12T08:48:11;23.00;99.90
15900;DHT22;8048;50.644;6.184;2023-09-12T08:50:38;23.20;99.90
15900;DHT22;8048;50.644;6.184;2023-09-12T08:53:04;23.50;99.90
15900;DHT22;8048;50.644;6.184;2023-09-12T08:55:31;23.60;99.90
15900;DHT22;8048;50.644;6.184;2023-09-12T08:57:58;23.80;99.90
15900;DHT22;8048;50.644;6.184;2023-09-12T09:00:25;24.00;99.90
15900;DHT22;8048;50.644;6.184;2023-09-12T09:02:52;24.20;99.20
15900;DHT22;8048;50.644;6.184;2023-09-12T09:05:20;24.40;98.40
15900;DHT22;8048;50.644;6.184;2023-09-12T09:07:48;24.50;98.10
15900;DHT22;8048;50.644;6.184;2023-09-12T09:10:16;24.70;98.80
15900;DHT22;8048;50.644;6.184;2023-09-12T09:12:44;25.10;98.60
15900;DHT22;8048;50.644;6.184;2023-09-12T09:15:40;25.30;98.30
15900;DHT22;8048;50.644;6.184;2023-09-12T09:18:06;25.50;98.40
15900;DHT22;8048;50.644;6.184;2023-09-12T09:20:33;25.70;96.90
15900;DHT22;8048;50.644;6.184;2023-09-12T09:23:10;25.80;97.30
15900;DHT22;8048;50.644;6.184;2023-09-12T09:25:39;25.80;96.40
15900;DHT22;8048;50.644;6.184;2023-09-12T09:28:15;25.80;97.30
15900;DHT22;8048;50.644;6.184;2023-09-12T09:30:45;26.00;98.00
15900;DHT22;8048;50.644;6.184;2023-09-12T09:33:13;26.40;97.40
15900;DHT22;8048;50.644;6.184;2023-09-12T09:35:41;26.50;96.90
15900;DHT22;8048;50.644;6.184;2023-09-12T09:38:08;26.80;97.40
15900;DHT22;8048;50.644;6.184;2023-09-12T09:40:34;27.00;96.60
15900;DHT22;8048;50.644;6.184;2023-09-12T09:43:02;27.10;96.30
15900;DHT22;8048;50.644;6.184;2023-09-12T09:45:29;27.20;96.10
15900;DHT22;8048;50.644;6.184;2023-09-12T09:48:04;27.30;95.30
15900;DHT22;8048;50.644;6.184;2023-09-12T09:50:29;27.20;95.30
15900;DHT22;8048;50.644;6.184;2023-09-12T09:52:55;27.30;95.20
15900;DHT22;8048;50.644;6.184;2023-09-12T09:55:23;27.40;95.00
15900;DHT22;8048;50.644;6.184;2023-09-12T09:57:50;27.60;95.90
15900;DHT22;8048;50.644;6.184;2023-09-12T10:00:19;28.10;96.30
15900;DHT22;8048;50.644;6.184;2023-09-12T10:02:46;28.50;93.90
15900;DHT22;8048;50.644;6.184;2023-09-12T10:05:13;28.80;93.50
15900;DHT22;8048;50.644;6.184;2023-09-12T10:07:40;29.00;92.70
15900;DHT22;8048;50.644;6.184;2023-09-12T10:10:07;28.90;92.50
15900;DHT22;8048;50.644;6.184;2023-09-12T10:12:39;28.90;92.90
15900;DHT22;8048;50.644;6.184;2023-09-12T10:15:09;29.00;93.50
15900;DHT22;8048;50.644;6.184;2023-09-12T10:17:37;29.30;92.10
15900;DHT22;8048;50.644;6.184;2023-09-12T10:20:09;29.50;91.40
15900;DHT22;8048;50.644;6.184;2023-09-12T10:22:41;29.80;91.20
15900;DHT22;8048;50.644;6.184;2023-09-12T10:25:09;29.90;90.60
15900;DHT22;8048;50.644;6.184;2023-09-12T10:27:36;30.00;90.90
15900;DHT22;8048;50.644;6.184;2023-09-12T10:30:03;30.20;90.70
15900;DHT22;8048;50.644;6.184;2023-09-12T10:32:30;30.20;90.30
15900;DHT22;8048;50.644;6.184;2023-09-12T10:34:58;30.30;89.70
15900;DHT22;8048;50.644;6.184;2023-09-12T10:37:25;30.50;89.30
15900;DHT22;8048;50.644;6.184;2023-09-12T10:39:53;30.90;91.30
15900;DHT22;8048;50.644;6.184;2023-09-12T10:42:20;31.20;87.60
15900;DHT22;8048;50.644;6.184;2023-09-12T10:44:46;31.40;89.40
15900;DHT22;8048;50.644;6.184;2023-09-12T10:47:13;31.60;86.90
15900;DHT22;8048;50.644;6.184;2023-09-12T10:49:39;31.50;86.20
15900;DHT22;8048;50.644;6.184;2023-09-12T10:52:08;31.70;85.70
15900;DHT22;8048;50.644;6.184;2023-09-12T10:54:40;31.80;85.40
15900;DHT22;8048;50.644;6.184;2023-09-12T10:57:10;31.90;84.90
15900;DHT22;8048;50.644;6.184;2023-09-12T11:02:28;32.10;85.70
15900;DHT22;8048;50.644;6.184;2023-09-12T11:05:04;32.30;83.40
15900;DHT22;8048;50.644;6.184;2023-09-12T11:12:41;33.70;80.00
15900;DHT22;8048;50.644;6.184;2023-09-12T11:15:08;33.80;77.00
15900;DHT22;8048;50.644;6.184;2023-09-12T11:17:39;34.10;77.00
15900;DHT22;8048;50.644;6.184;2023-09-12T11:20:05;34.50;76.90
15900;DHT22;8048;50.644;6.184;2023-09-12T11:22:40;34.70;76.20
15900;DHT22;8048;50.644;6.184;2023-09-12T11:25:26;34.70;74.40
15900;DHT22;8048;50.644;6.184;2023-09-12T11:30:18;35.30;71.50
15900;DHT22;8048;50.644;6.184;2023-09-12T11:32:47;35.30;70.30
15900;DHT22;8048;50.644;6.184;2023-09-12T11:35:14;35.40;71.50
15900;DHT22;8048;50.644;6.184;2023-09-12T11:37:57;35.40;68.50
15900;DHT22;8048;50.644;6.184;2023-09-12T11:42:49;35.00;69.80
15900;DHT22;8048;50.644;6.184;2023-09-12T11:45:18;35.00;70.40
15900;DHT22;8048;50.644;6.184;2023-09-12T11:47:45;34.80;71.20
15900;DHT22;8048;50.644;6.184;2023-09-12T11:50:33;34.80;71.00
15900;DHT22;8048;50.644;6.184;2023-09-12T11:53:09;34.70;69.90
15900;DHT22;8048;50.644;6.184;2023-09-12T11:55:41;34.10;68.80
15900;DHT22;8048;50.644;6.184;2023-09-12T11:58:07;33.30;70.30
15900;DHT22;8048;50.644;6.184;2023-09-12T12:00:33;33.00;70.90
15900;DHT22;8048;50.644;6.184;2023-09-12T12:02:59;32.60;73.90
15900;DHT22;8048;50.644;6.184;2023-09-12T12:05:24;32.30;73.60
15900;DHT22;8048;50.644;6.184;2023-09-12T12:07:50;31.90;74.30
15900;DHT22;8048;50.644;6.184;2023-09-12T12:10:17;31.70;75.10
15900;DHT22;8048;50.644;6.184;2023-09-12T12:12:44;31.60;76.20
15900;DHT22;8048;50.644;6.184;2023-09-12T12:15:12;31.70;78.60
15900;DHT22;8048;50.644;6.184;2023-09-12T12:17:38;32.10;75.70
15900;DHT22;8048;50.644;6.184;2023-09-12T12:20:07;32.70;75.30
15900;DHT22;8048;50.644;6.184;2023-09-12T12:22:36;33.40;77.00
15900;DHT22;8048;50.644;6.184;2023-09-12T12:25:06;33.90;73.80
15900;DHT22;8048;50.644;6.184;2023-09-12T12:27:34;33.90;70.60
15900;DHT22;8048;50.644;6.184;2023-09-12T12:30:00;33.50;70.50
15900;DHT22;8048;50.644;6.184;2023-09-12T12:32:26;33.10;71.30
15900;DHT22;8048;50.644;6.184;2023-09-12T12:34:51;33.00;73.10
15900;DHT22;8048;50.644;6.184;2023-09-12T12:37:17;32.80;73.40
15900;DHT22;8048;50.644;6.184;2023-09-12T12:39:43;32.60;74.80
15900;DHT22;8048;50.644;6.184;2023-09-12T12:42:09;32.50;73.90
15900;DHT22;8048;50.644;6.184;2023-09-12T12:44:34;32.60;74.60
15900;DHT22;8048;50.644;6.184;2023-09-12T12:47:08;32.80;73.60
15900;DHT22;8048;50.644;6.184;2023-09-12T12:49:38;32.90;74.40
15900;DHT22;8048;50.644;6.184;2023-09-12T12:52:05;32.90;73.40
15900;DHT22;8048;50.644;6.184;2023-09-12T12:54:33;32.90;73.60
15900;DHT22;8048;50.644;6.184;2023-09-12T12:57:00;33.20;73.50
15900;DHT22;8048;50.644;6.184;2023-09-12T12:59:26;33.50;73.10
15900;DHT22;8048;50.644;6.184;2023-09-12T13:01:51;33.30;70.90
15900;DHT22;8048;50.644;6.184;2023-09-12T13:04:17;33.30;72.20
15900;DHT22;8048;50.644;6.184;2023-09-12T13:06:43;33.60;73.00
15900;DHT22;8048;50.644;6.184;2023-09-12T13:09:09;33.70;73.00
15900;DHT22;8048;50.644;6.184;2023-09-12T13:11:36;33.90;71.20
15900;DHT22;8048;50.644;6.184;2023-09-12T13:14:04;34.20;69.30
15900;DHT22;8048;50.644;6.184;2023-09-12T13:16:37;34.40;68.80
15900;DHT22;8048;50.644;6.184;2023-09-12T13:19:03;34.40;70.70
15900;DHT22;8048;50.644;6.184;2023-09-12T13:21:29;34.60;69.40
15900;DHT22;8048;50.644;6.184;2023-09-12T13:23:54;34.80;66.80
15900;DHT22;8048;50.644;6.184;2023-09-12T13:26:20;34.70;66.30
15900;DHT22;8048;50.644;6.184;2023-09-12T13:28:45;34.20;67.40
15900;DHT22;8048;50.644;6.184;2023-09-12T13:31:11;33.70;67.50
15900;DHT22;8048;50.644;6.184;2023-09-12T13:33:37;32.90;69.40
15900;DHT22;8048;50.644;6.184;2023-09-12T13:36:03;32.40;70.60
15900;DHT22;8048;50.644;6.184;2023-09-12T13:38:28;32.20;72.90
15900;DHT22;8048;50.644;6.184;2023-09-12T13:40:54;31.90;73.40
15900;DHT22;8048;50.644;6.184;2023-09-12T13:43:19;31.70;74.60
15900;DHT22;8048;50.644;6.184;2023-09-12T13:45:45;31.50;73.80
15900;DHT22;8048;50.644;6.184;2023-09-12T13:48:11;31.20;74.10
15900;DHT22;8048;50.644;6.184;2023-09-12T13:50:37;30.90;75.00
15900;DHT22;8048;50.644;6.184;2023-09-12T13:53:03;30.60;75.50
15900;DHT22;8048;50.644;6.184;2023-09-12T13:55:31;30.50;77.70
15900;DHT22;8048;50.644;6.184;2023-09-12T13:57:56;30.60;78.30
15900;DHT22;8048;50.644;6.184;2023-09-12T14:00:22;31.00;79.30
15900;DHT22;8048;50.644;6.184;2023-09-12T14:02:47;31.40;78.50
15900;DHT22;8048;50.644;6.184;2023-09-12T14:05:13;31.80;78.20
15900;DHT22;8048;50.644;6.184;2023-09-12T14:07:39;31.80;76.90
15900;DHT22;8048;50.644;6.184;2023-09-12T14:10:06;31.80;75.80
15900;DHT22;8048;50.644;6.184;2023-09-12T14:12:32;31.80;76.70
15900;DHT22;8048;50.644;6.184;2023-09-12T14:14:58;32.10;76.00
15900;DHT22;8048;50.644;6.184;2023-09-12T14:17:23;32.30;74.30
15900;DHT22;8048;50.644;6.184;2023-09-12T14:19:49;32.30;74.80
15900;DHT22;8048;50.644;6.184;2023-09-12T14:22:14;32.10;73.60
15900;DHT22;8048;50.644;6.184;2023-09-12T14:24:40;32.20;73.30
15900;DHT22;8048;50.644;6.184;2023-09-12T14:27:06;32.30;73.80
15900;DHT22;8048;50.644;6.184;2023-09-12T14:29:31;32.70;74.30
15900;DHT22;8048;50.644;6.184;2023-09-12T14:31:57;33.00;72.40
15900;DHT22;8048;50.644;6.184;2023-09-12T14:34:26;33.10;71.10
15900;DHT22;8048;50.644;6.184;2023-09-12T14:36:54;33.20;71.20
15900;DHT22;8048;50.644;6.184;2023-09-12T14:39:20;33.30;70.40
15900;DHT22;8048;50.644;6.184;2023-09-12T14:41:46;33.20;70.30
15900;DHT22;8048;50.644;6.184;2023-09-12T14:44:26;33.20;71.50
15900;DHT22;8048;50.644;6.184;2023-09-12T14:46:52;33.10;71.50
15900;DHT22;8048;50.644;6.184;2023-09-12T14:49:17;32.80;70.70
15900;DHT22;8048;50.644;6.184;2023-09-12T14:51:43;32.40;72.00
15900;DHT22;8048;50.644;6.184;2023-09-12T14:54:09;32.00;71.80
15900;DHT22;8048;50.644;6.184;2023-09-12T14:56:35;31.60;73.60
15900;DHT22;8048;50.644;6.184;2023-09-12T14:59:01;31.20;74.30
15900;DHT22;8048;50.644;6.184;2023-09-12T15:01:27;31.10;75.30
15900;DHT22;8048;50.644;6.184;2023-09-12T15:03:53;31.00;75.50
15900;DHT22;8048;50.644;6.184;2023-09-12T15:06:19;30.80;75.70
15900;DHT22;8048;50.644;6.184;2023-09-12T15:08:45;30.60;76.30
15900;DHT22;8048;50.644;6.184;2023-09-12T15:11:11;30.50;76.80
15900;DHT22;8048;50.644;6.184;2023-09-12T15:13:37;30.30;77.30
15900;DHT22;8048;50.644;6.184;2023-09-12T15:16:03;30.20;77.70
15900;DHT22;8048;50.644;6.184;2023-09-12T15:18:30;30.10;77.00
15900;DHT22;8048;50.644;6.184;2023-09-12T15:20:55;30.00;78.40
15900;DHT22;8048;50.644;6.184;2023-09-12T15:23:21;29.90;77.70
15900;DHT22;8048;50.644;6.184;2023-09-12T15:25:48;29.80;77.50
15900;DHT22;8048;50.644;6.184;2023-09-12T15:28:14;29.40;79.10
15900;DHT22;8048;50.644;6.184;2023-09-12T15:30:39;29.10;80.20
15900;DHT22;8048;50.644;6.184;2023-09-12T15:33:05;29.00;80.90
15900;DHT22;8048;50.644;6.184;2023-09-12T15:35:30;28.70;81.80
15900;DHT22;8048;50.644;6.184;2023-09-12T15:37:56;28.40;82.10
15900;DHT22;8048;50.644;6.184;2023-09-12T15:40:21;28.30;82.90
15900;DHT22;8048;50.644;6.184;2023-09-12T15:42:47;28.10;83.90
15900;DHT22;8048;50.644;6.184;2023-09-12T15:45:12;28.00;84.40
15900;DHT22;8048;50.644;6.184;2023-09-12T15:47:38;27.90;84.10
15900;DHT22;8048;50.644;6.184;2023-09-12T15:50:05;27.70;84.80
15900;DHT22;8048;50.644;6.184;2023-09-12T15:52:31;27.60;85.80
15900;DHT22;8048;50.644;6.184;2023-09-12T15:55:02;27.40;86.40
15900;DHT22;8048;50.644;6.184;2023-09-12T15:57:28;27.30;86.50